Time,TemperatureF,DewpointF,PressureIn,WindDirection,WindDirectionDegrees,WindSpeedMPH,WindSpeedGustMPH,Humidity,HourlyPrecipIn,Conditions,Clouds,dailyrainin,SoftwareType,DateUTC
2013-07-19 00:58:00,77.8,77.8,30.13,WNW,286,0.0,0.0,100,0.00,,,0.00,Meteorologica,2013-07-19 04:58:00,
2013-07-19 01:00:00,74.0,74.0,30.05,SSW,199,1.4,3.7,100,0.00,,,0.18,Meteorologica,2013-07-19 05:00:00,
2013-07-19 01:01:00,74.0,74.0,30.05,South,172,0.2,3.7,100,0.00,,,0.18,Meteorologica,2013-07-19 05:01:00,
2013-07-19 01:02:00,74.1,74.1,30.05,South,172,0.0,3.7,100,0.00,,,0.18,Meteorologica,2013-07-19 05:02:00,
2013-07-19 01:03:00,77.9,77.9,30.13,WNW,286,0.0,0.0,100,0.00,,,0.00,Meteorologica,2013-07-19 05:03:00,
2013-07-19 01:04:00,74.1,74.1,30.05,South,172,0.0,3.7,100,0.00,,,0.18,Meteorologica,2013-07-19 05:04:00,
2013-07-19 01:05:00,74.1,74.1,30.06,South,172,0.0,0.8,100,0.00,,,0.18,Meteorologica,2013-07-19 05:05:00,
2013-07-19 01:06:00,74.1,74.1,30.05,South,172,0.0,0.8,100,0.00,,,0.18,Meteorologica,2013-07-19 05:06:00,
2013-07-19 01:07:00,74.0,74.0,30.05,South,172,0.0,0.8,100,0.00,,,0.18,Meteorologica,2013-07-19 05:07:00,
2013-07-19 01:08:00,77.8,77.8,30.13,WNW,286,0.0,0.0,100,0.00,,,0.00,Meteorologica,2013-07-19 05:08:00,
2013-07-19 01:09:00,74.1,74.1,30.05,South,172,0.0,0.8,100,0.00,,,0.18,Meteorologica,2013-07-19 05:09:00,
2013-07-19 01:10:00,74.1,74.1,30.05,South,172,0.0,0.0,100,0.00,,,0.18,Meteorologica,2013-07-19 05:10:00,
2013-07-19 01:11:00,74.0,74.0,30.05,South,172,0.0,0.0,100,0.00,,,0.18,Meteorologica,2013-07-19 05:11:00,
2013-07-19 01:12:00,74.1,74.1,30.05,South,172,0.0,0.0,100,0.00,,,0.18,Meteorologica,2013-07-19 05:12:00,
2013-07-19 01:13:00,77.5,77.5,30.12,WNW,286,0.0,0.0,100,0.00,,,0.00,Meteorologica,2013-07-19 05:13:00,
2013-07-19 01:14:00,74.1,74.1,30.06,South,172,0.0,0.0,100,0.00,,,0.18,Meteorologica,2013-07-19 05:14:00,
2013-07-19 01:15:00,74.1,74.1,30.06,South,172,0.0,0.0,100,0.00,,,0.18,Meteorologica,2013-07-19 05:15:00,
2013-07-19 01:16:00,74.2,74.2,30.06,South,172,0.0,0.0,100,0.00,,,0.18,Meteorologica,2013-07-19 05:16:00,
2013-07-19 01:17:00,74.1,74.1,30.06,South,172,0.0,0.0,100,0.00,,,0.18,Meteorologica,2013-07-19 05:17:00,
2013-07-19 01:18:00,74.1,74.1,30.06,South,172,0.0,0.0,100,0.00,,,0.18,Meteorologica,2013-07-19 05:18:00,
2013-07-19 01:19:00,77.8,77.7,30.12,WNW,286,0.0,0.0,100,0.00,,,0.00,Meteorologica,2013-07-19 05:19:00,
2013-07-19 01:20:00,74.0,74.0,30.06,South,172,0.0,0.0,100,0.00,,,0.18,Meteorologica,2013-07-19 05:20:00,
2013-07-19 01:21:00,74.0,74.0,30.06,South,172,0.0,0.0,100,0.00,,,0.18,Meteorologica,2013-07-19 05:21:00,
2013-07-19 01:22:00,74.1,74.1,30.06,South,172,0.0,0.0,100,0.00,,,0.18,Meteorologica,2013-07-19 05:22:00,
2013-07-19 01:23:00,74.1,74.1,30.06,South,172,0.0,0.0,100,0.00,,,0.18,Meteorologica,2013-07-19 05:23:00,
2013-07-19 01:24:00,77.4,77.4,30.13,WNW,286,0.0,0.0,100,0.00,,,0.00,Meteorologica,2013-07-19 05:24:00,
2013-07-19 01:25:00,74.0,74.0,30.05,South,172,0.0,0.0,100,0.00,,,0.18,Meteorologica,2013-07-19 05:25:00,
2013-07-19 01:26:00,74.1,74.1,30.05,South,172,0.0,0.0,100,0.00,,,0.18,Meteorologica,2013-07-19 05:26:00,
2013-07-19 01:27:00,74.1,74.1,30.05,South,172,0.0,0.0,100,0.00,,,0.18,Meteorologica,2013-07-19 05:27:00,
2013-07-19 01:28:00,74.1,74.1,30.05,South,172,0.0,0.0,100,0.00,,,0.18,Meteorologica,2013-07-19 05:28:00,
2013-07-19 01:29:00,77.4,77.4,30.12,WNW,286,0.0,0.0,100,0.00,,,0.00,Meteorologica,2013-07-19 05:29:00,
2013-07-19 01:30:00,74.2,74.2,30.05,South,172,0.0,0.0,100,0.00,,,0.18,Meteorologica,2013-07-19 05:30:00,
2013-07-19 01:31:00,74.1,74.1,30.05,South,172,0.0,0.0,100,0.00,,,0.18,Meteorologica,2013-07-19 05:31:00,
2013-07-19 01:32:00,74.1,74.1,30.05,South,172,0.0,0.0,100,0.00,,,0.18,Meteorologica,2013-07-19 05:32:00,
2013-07-19 01:33:00,74.1,74.1,30.05,South,172,0.0,0.0,100,0.00,,,0.18,Meteorologica,2013-07-19 05:33:00,
2013-07-19 01:34:00,77.4,77.4,30.13,SW,217,0.0,1.5,100,0.00,,,0.00,Meteorologica,2013-07-19 05:34:00,
2013-07-19 01:35:00,74.1,74.1,30.05,South,172,0.0,0.0,100,0.00,,,0.18,Meteorologica,2013-07-19 05:35:00,
2013-07-19 01:36:00,74.1,74.1,30.06,South,172,0.0,0.0,100,0.00,,,0.18,Meteorologica,2013-07-19 05:36:00,
2013-07-19 01:37:00,74.1,74.1,30.06,South,172,0.0,0.0,100,0.00,,,0.18,Meteorologica,2013-07-19 05:37:00,
2013-07-19 01:38:00,74.0,74.0,30.06,South,172,0.0,0.0,100,0.00,,,0.18,Meteorologica,2013-07-19 05:38:00,
2013-07-19 01:39:00,77.2,77.2,30.13,SW,217,0.0,0.0,100,0.00,,,0.00,Meteorologica,2013-07-19 05:39:00,
2013-07-19 01:40:00,74.1,74.1,30.06,South,172,0.0,0.0,100,0.00,,,0.18,Meteorologica,2013-07-19 05:40:00,
2013-07-19 01:41:00,74.1,74.1,30.06,South,172,0.0,0.0,100,0.00,,,0.18,Meteorologica,2013-07-19 05:41:00,
2013-07-19 01:42:00,74.1,74.1,30.06,South,172,0.0,0.0,100,0.00,,,0.18,Meteorologica,2013-07-19 05:42:00,
2013-07-19 01:43:00,74.1,74.1,30.06,South,172,0.0,0.0,100,0.00,,,0.18,Meteorologica,2013-07-19 05:43:00,
2013-07-19 01:44:00,77.3,77.3,30.12,SW,217,0.0,0.0,100,0.00,,,0.00,Meteorologica,2013-07-19 05:44:00,
2013-07-19 01:45:00,74.1,74.1,30.06,South,172,0.0,0.0,100,0.00,,,0.18,Meteorologica,2013-07-19 05:45:00,
2013-07-19 01:46:00,74.2,74.2,30.06,South,172,0.0,0.0,100,0.00,,,0.18,Meteorologica,2013-07-19 05:46:00,
2013-07-19 01:47:00,74.2,74.2,30.06,South,172,0.0,0.0,100,0.00,,,0.18,Meteorologica,2013-07-19 05:47:00,
2013-07-19 01:48:00,74.2,74.2,30.06,South,172,0.0,0.0,100,0.00,,,0.18,Meteorologica,2013-07-19 05:48:00,
2013-07-19 01:49:00,77.1,77.1,30.12,SW,217,0.0,0.0,100,0.00,,,0.00,Meteorologica,2013-07-19 05:49:00,
2013-07-19 01:50:00,74.1,74.1,30.06,South,172,0.0,0.0,100,0.00,,,0.18,Meteorologica,2013-07-19 05:50:00,
2013-07-19 01:51:00,74.1,74.1,30.06,South,172,0.0,0.0,100,0.00,,,0.18,Meteorologica,2013-07-19 05:51:00,
2013-07-19 01:52:00,74.2,74.2,30.06,South,172,0.0,0.0,100,0.00,,,0.18,Meteorologica,2013-07-19 05:52:00,
2013-07-19 01:53:00,74.1,74.1,30.06,South,172,0.0,0.0,100,0.00,,,0.18,Meteorologica,2013-07-19 05:53:00,
2013-07-19 01:54:00,74.1,74.1,30.06,South,172,0.0,0.0,100,0.00,,,0.18,Meteorologica,2013-07-19 05:54:00,
2013-07-19 01:55:00,77.1,77.1,30.12,SE,129,0.0,0.9,100,0.00,,,0.00,Meteorologica,2013-07-19 05:55:00,
2013-07-19 01:56:00,74.2,74.2,30.06,South,172,0.0,0.0,100,0.00,,,0.18,Meteorologica,2013-07-19 05:56:00,
2013-07-19 01:57:00,74.3,74.3,30.06,South,172,0.0,0.0,100,0.00,,,0.18,Meteorologica,2013-07-19 05:57:00,
2013-07-19 01:58:00,74.2,74.2,30.06,South,172,0.0,0.0,100,0.00,,,0.18,Meteorologica,2013-07-19 05:58:00,
2013-07-19 01:59:00,74.1,74.1,30.06,South,172,0.0,0.0,100,0.00,,,0.18,Meteorologica,2013-07-19 05:59:00,
2013-07-19 02:00:00,77.0,77.0,30.12,WSW,241,0.0,2.0,100,0.00,,,0.00,Meteorologica,2013-07-19 06:00:00,
2013-07-19 02:05:00,76.9,76.9,30.12,WSW,241,0.0,0.0,100,0.00,,,0.00,Meteorologica,2013-07-19 06:05:00,
2013-07-19 02:10:00,76.8,76.8,30.12,WSW,241,0.0,0.0,100,0.00,,,0.00,Meteorologica,2013-07-19 06:10:00,
2013-07-19 02:16:00,76.6,76.6,30.12,WSW,241,0.0,0.0,100,0.00,,,0.00,Meteorologica,2013-07-19 06:16:00,
2013-07-19 02:21:00,76.7,76.7,30.11,WSW,241,0.0,0.0,100,0.00,,,0.00,Meteorologica,2013-07-19 06:21:00,
2013-07-19 02:26:00,76.7,76.7,30.11,WSW,241,0.0,0.0,100,0.00,,,0.00,Meteorologica,2013-07-19 06:26:00,
2013-07-19 02:31:00,76.5,76.5,30.11,WSW,241,0.0,0.0,100,0.00,,,0.00,Meteorologica,2013-07-19 06:31:00,
2013-07-19 02:36:00,76.2,76.2,30.11,WSW,241,0.0,0.0,100,0.00,,,0.00,Meteorologica,2013-07-19 06:36:00,
2013-07-19 02:42:00,76.2,76.2,30.11,WSW,241,0.0,0.0,100,0.00,,,0.00,Meteorologica,2013-07-19 06:42:00,
2013-07-19 02:47:00,75.9,75.9,30.11,WSW,241,0.0,0.0,100,0.00,,,0.00,Meteorologica,2013-07-19 06:47:00,
2013-07-19 02:53:00,75.8,75.8,30.11,WSW,241,0.0,0.0,100,0.00,,,0.00,Meteorologica,2013-07-19 06:53:00,
2013-07-19 02:58:00,75.8,75.8,30.11,WSW,241,0.0,0.0,100,0.00,,,0.00,Meteorologica,2013-07-19 06:58:00,
2013-07-19 03:03:00,75.8,75.8,30.11,WSW,241,0.0,0.0,100,0.00,,,0.00,Meteorologica,2013-07-19 07:03:00,
2013-07-19 03:08:00,75.5,75.5,30.11,WSW,241,0.0,0.0,100,0.00,,,0.00,Meteorologica,2013-07-19 07:08:00,
2013-07-19 03:14:00,75.4,75.4,30.11,WSW,241,0.0,0.0,100,0.00,,,0.00,Meteorologica,2013-07-19 07:14:00,
2013-07-19 03:19:00,75.5,75.5,30.11,WSW,241,0.0,0.0,100,0.00,,,0.00,Meteorologica,2013-07-19 07:19:00,
2013-07-19 03:24:00,75.2,75.2,30.11,WSW,241,0.0,0.0,100,0.00,,,0.00,Meteorologica,2013-07-19 07:24:00,
2013-07-19 03:29:00,75.1,75.1,30.11,WSW,241,0.0,0.0,100,0.00,,,0.00,Meteorologica,2013-07-19 07:29:00,
2013-07-19 03:35:00,74.9,74.9,30.11,WSW,241,0.0,0.0,100,0.00,,,0.00,Meteorologica,2013-07-19 07:35:00,
2013-07-19 03:40:00,74.9,74.9,30.11,WSW,241,0.0,0.0,100,0.00,,,0.00,Meteorologica,2013-07-19 07:40:00,
2013-07-19 03:45:00,74.8,74.8,30.11,WSW,241,0.0,0.0,100,0.00,,,0.00,Meteorologica,2013-07-19 07:45:00,
2013-07-19 03:50:00,74.9,74.9,30.11,WSW,241,0.0,0.0,100,0.00,,,0.00,Meteorologica,2013-07-19 07:50:00,
2013-07-19 03:55:00,74.8,74.8,30.11,WSW,241,0.0,0.0,100,0.00,,,0.00,Meteorologica,2013-07-19 07:55:00,
2013-07-19 04:01:00,74.7,74.7,30.11,WSW,241,0.0,0.0,100,0.00,,,0.00,Meteorologica,2013-07-19 08:01:00,
2013-07-19 04:06:00,74.6,74.6,30.10,WSW,241,0.0,0.0,100,0.00,,,0.00,Meteorologica,2013-07-19 08:06:00,
2013-07-19 04:11:00,74.7,74.7,30.11,WSW,241,0.0,0.0,100,0.00,,,0.00,Meteorologica,2013-07-19 08:11:00,
2013-07-19 04:16:00,74.6,74.6,30.11,WSW,241,0.0,0.0,100,0.00,,,0.00,Meteorologica,2013-07-19 08:16:00,
2013-07-19 04:21:00,74.5,74.5,30.10,WSW,241,0.0,0.0,100,0.00,,,0.00,Meteorologica,2013-07-19 08:21:00,
2013-07-19 04:26:00,74.5,74.5,30.11,WSW,241,0.0,0.0,100,0.00,,,0.00,Meteorologica,2013-07-19 08:26:00,
2013-07-19 04:31:00,74.4,74.4,30.10,WSW,241,0.0,0.0,100,0.00,,,0.00,Meteorologica,2013-07-19 08:31:00,
2013-07-19 04:36:00,74.4,74.4,30.10,WSW,241,0.0,0.0,100,0.00,,,0.00,Meteorologica,2013-07-19 08:36:00,
2013-07-19 04:42:00,74.7,74.7,30.10,WSW,241,0.0,0.0,100,0.00,,,0.00,Meteorologica,2013-07-19 08:42:00,
2013-07-19 04:47:00,74.5,74.5,30.11,WSW,241,0.0,0.0,100,0.00,,,0.00,Meteorologica,2013-07-19 08:47:00,
2013-07-19 04:52:00,74.5,74.5,30.10,WSW,241,0.0,0.0,100,0.00,,,0.00,Meteorologica,2013-07-19 08:52:00,
2013-07-19 04:57:00,74.5,74.6,30.10,WSW,241,0.0,0.0,100,0.00,,,0.00,Meteorologica,2013-07-19 08:57:00,
2013-07-19 05:02:00,74.5,74.5,30.10,WSW,241,0.0,0.0,100,0.00,,,0.00,Meteorologica,2013-07-19 09:02:00,
2013-07-19 05:07:00,74.3,74.3,30.10,WSW,241,0.0,0.0,100,0.00,,,0.00,Meteorologica,2013-07-19 09:07:00,
2013-07-19 05:12:00,74.3,74.3,30.10,WSW,241,0.0,0.0,100,0.00,,,0.00,Meteorologica,2013-07-19 09:12:00,
2013-07-19 05:18:00,74.2,74.2,30.10,WSW,241,0.0,0.0,100,0.00,,,0.00,Meteorologica,2013-07-19 09:18:00,
2013-07-19 05:23:00,74.1,74.1,30.10,WSW,241,0.0,0.0,100,0.00,,,0.00,Meteorologica,2013-07-19 09:23:00,
2013-07-19 05:28:00,74.1,74.1,30.11,WSW,241,0.0,0.0,100,0.00,,,0.00,Meteorologica,2013-07-19 09:28:00,
2013-07-19 05:33:00,74.1,74.1,30.11,WSW,241,0.0,0.0,100,0.00,,,0.00,Meteorologica,2013-07-19 09:33:00,
2013-07-19 06:00:00,73.8,73.8,30.11,WSW,241,0.0,0.0,100,0.00,,,0.00,Meteorologica,2013-07-19 10:00:00,
2013-07-19 06:05:00,73.6,73.6,30.11,WSW,241,0.0,0.0,100,0.00,,,0.00,Meteorologica,2013-07-19 10:05:00,
2013-07-19 06:10:00,73.6,73.6,30.11,WSW,241,0.0,0.0,100,0.00,,,0.00,Meteorologica,2013-07-19 10:10:00,
2013-07-19 06:15:00,73.7,73.7,30.11,WSW,241,0.0,0.0,100,0.00,,,0.00,Meteorologica,2013-07-19 10:15:00,
2013-07-19 06:20:00,73.5,73.5,30.11,WSW,241,0.0,0.0,100,0.00,,,0.00,Meteorologica,2013-07-19 10:20:00,
2013-07-19 06:26:00,73.5,73.5,30.12,WSW,241,0.0,0.0,100,0.00,,,0.00,Meteorologica,2013-07-19 10:26:00,
2013-07-19 06:31:00,73.6,73.6,30.12,WSW,241,0.0,0.0,100,0.00,,,0.00,Meteorologica,2013-07-19 10:31:00,
2013-07-19 06:36:00,73.6,73.6,30.12,WSW,241,0.0,0.0,100,0.00,,,0.00,Meteorologica,2013-07-19 10:36:00,
2013-07-19 06:41:00,73.4,73.4,30.11,WSW,241,0.0,0.0,100,0.00,,,0.00,Meteorologica,2013-07-19 10:41:00,
2013-07-19 06:46:00,73.5,73.5,30.12,WSW,241,0.0,0.0,100,0.00,,,0.00,Meteorologica,2013-07-19 10:46:00,
2013-07-19 06:52:00,73.6,73.6,30.12,WSW,241,0.0,0.0,100,0.00,,,0.00,Meteorologica,2013-07-19 10:52:00,
2013-07-19 06:57:00,73.7,73.7,30.12,WSW,241,0.0,0.0,100,0.00,,,0.00,Meteorologica,2013-07-19 10:57:00,
2013-07-19 07:02:00,73.5,73.5,30.13,WSW,241,0.0,0.0,100,0.00,,,0.00,Meteorologica,2013-07-19 11:02:00,
2013-07-19 07:08:00,73.6,73.6,30.13,WSW,241,0.0,0.0,100,0.00,,,0.00,Meteorologica,2013-07-19 11:08:00,
2013-07-19 07:13:00,73.5,73.5,30.13,WSW,241,0.0,0.0,100,0.00,,,0.00,Meteorologica,2013-07-19 11:13:00,
2013-07-19 07:18:00,73.5,73.5,30.13,WSW,241,0.0,0.0,100,0.00,,,0.00,Meteorologica,2013-07-19 11:18:00,
2013-07-19 07:23:00,73.6,73.6,30.13,WSW,241,0.0,0.0,100,0.00,,,0.00,Meteorologica,2013-07-19 11:23:00,
2013-07-19 07:28:00,73.6,73.6,30.13,WSW,241,0.0,0.0,100,0.00,,,0.00,Meteorologica,2013-07-19 11:28:00,
2013-07-19 07:33:00,73.8,73.8,30.13,WSW,241,0.0,0.0,100,0.00,,,0.00,Meteorologica,2013-07-19 11:33:00,
2013-07-19 07:39:00,73.9,73.9,30.14,WSW,241,0.0,0.0,100,0.00,,,0.00,Meteorologica,2013-07-19 11:39:00,
2013-07-19 07:44:00,73.9,73.9,30.13,WSW,241,0.0,0.0,100,0.00,,,0.00,Meteorologica,2013-07-19 11:44:00,
2013-07-19 07:49:00,73.8,73.8,30.14,WSW,241,0.0,0.0,100,0.00,,,0.00,Meteorologica,2013-07-19 11:49:00,
2013-07-19 07:54:00,73.9,73.9,30.14,WSW,241,0.0,0.0,100,0.00,,,0.00,Meteorologica,2013-07-19 11:54:00,
2013-07-19 07:59:00,74.0,74.0,30.14,WSW,241,0.0,0.0,100,0.00,,,0.00,Meteorologica,2013-07-19 11:59:00,
2013-07-19 08:04:00,73.8,73.8,30.14,WSW,241,0.0,0.0,100,0.00,,,0.00,Meteorologica,2013-07-19 12:04:00,
2013-07-19 08:09:00,73.9,73.9,30.14,WSW,241,0.0,0.0,100,0.00,,,0.00,Meteorologica,2013-07-19 12:09:00,
2013-07-19 09:00:00,75.4,75.4,30.15,South,186,0.0,0.0,100,0.00,,,0.00,Meteorologica,2013-07-19 13:00:00,
2013-07-19 09:05:00,75.6,75.6,30.15,SW,218,0.1,2.8,100,0.00,,,0.00,Meteorologica,2013-07-19 13:05:00,
2013-07-19 09:10:00,75.7,75.7,30.15,SSW,203,0.0,2.1,100,0.00,,,0.00,Meteorologica,2013-07-19 13:10:00,
2013-07-19 09:15:00,75.9,75.9,30.15,SSW,203,0.0,0.0,100,0.00,,,0.00,Meteorologica,2013-07-19 13:15:00,
2013-07-19 09:20:00,75.9,75.9,30.15,South,171,1.8,3.2,100,0.00,,,0.00,Meteorologica,2013-07-19 13:20:00,
2013-07-19 09:25:00,76.3,76.3,30.15,SSW,210,3.4,4.5,100,0.00,,,0.00,Meteorologica,2013-07-19 13:25:00,
2013-07-19 09:26:00,76.3,76.3,30.15,SSW,209,2.8,4.5,100,0.00,,,0.00,Meteorologica,2013-07-19 13:26:00,
2013-07-19 09:31:00,76.7,76.7,30.15,SE,141,0.0,4.3,100,0.00,,,0.00,Meteorologica,2013-07-19 13:31:00,
2013-07-19 09:36:00,77.1,77.1,30.15,SW,221,0.0,2.6,100,0.00,,,0.00,Meteorologica,2013-07-19 13:36:00,
2013-07-19 09:41:00,77.3,77.3,30.15,SSE,152,0.0,2.5,100,0.00,,,0.00,Meteorologica,2013-07-19 13:41:00,
2013-07-19 09:46:00,77.5,77.5,30.16,SW,225,0.1,1.9,100,0.00,,,0.00,Meteorologica,2013-07-19 13:46:00,
2013-07-19 09:51:00,77.9,77.9,30.16,SW,229,2.4,3.1,100,0.00,,,0.00,Meteorologica,2013-07-19 13:51:00,
2013-07-19 09:56:00,78.1,78.1,30.16,South,177,0.4,5.0,100,0.00,,,0.00,Meteorologica,2013-07-19 13:56:00,
2013-07-19 10:01:00,78.3,78.3,30.16,SW,223,2.8,3.1,100,0.00,,,0.00,Meteorologica,2013-07-19 14:01:00,
2013-07-19 10:06:00,78.8,78.8,30.16,WSW,247,1.7,5.6,100,0.00,,,0.00,Meteorologica,2013-07-19 14:06:00,
2013-07-19 10:11:00,79.2,79.2,30.16,West,266,2.4,5.1,100,0.00,,,0.00,Meteorologica,2013-07-19 14:11:00,
2013-07-19 10:16:00,79.5,79.5,30.16,WSW,239,3.2,5.8,100,0.00,,,0.00,Meteorologica,2013-07-19 14:16:00,
2013-07-19 10:21:00,80.0,80.0,30.15,SE,137,1.9,5.9,100,0.00,,,0.00,Meteorologica,2013-07-19 14:21:00,
2013-07-19 10:26:00,80.3,77.6,30.15,SSE,155,1.5,4.3,91,0.00,,,0.00,Meteorologica,2013-07-19 14:26:00,
2013-07-19 10:31:00,80.7,77.3,30.15,SW,217,3.7,5.2,89,0.00,,,0.00,Meteorologica,2013-07-19 14:31:00,
2013-07-19 10:36:00,81.1,75.9,30.15,SSW,208,3.2,6.3,84,0.00,,,0.00,Meteorologica,2013-07-19 14:36:00,
2013-07-19 10:41:00,81.3,76.2,30.15,ESE,110,0.5,5.8,84,0.00,,,0.00,Meteorologica,2013-07-19 14:41:00,
2013-07-19 10:46:00,81.6,75.7,30.15,NW,304,0.6,4.2,82,0.00,,,0.00,Meteorologica,2013-07-19 14:46:00,
2013-07-19 10:51:00,81.6,73.8,30.15,ENE,66,2.1,5.5,77,0.00,,,0.00,Meteorologica,2013-07-19 14:51:00,
2013-07-19 10:56:00,82.0,74.1,30.15,SSW,207,1.9,7.4,76,0.00,,,0.00,Meteorologica,2013-07-19 14:56:00,
2013-07-19 11:01:00,82.2,74.8,30.15,SSW,206,0.0,6.8,78,0.00,,,0.00,Meteorologica,2013-07-19 15:01:00,
2013-07-19 11:06:00,82.4,74.1,30.15,SSW,200,3.1,3.5,75,0.00,,,0.00,Meteorologica,2013-07-19 15:06:00,
2013-07-19 11:11:00,82.6,72.8,30.15,SSW,203,3.5,6.1,71,0.00,,,0.00,Meteorologica,2013-07-19 15:11:00,
2013-07-19 11:16:00,82.8,72.7,30.15,ESE,103,2.9,5.9,71,0.00,,,0.00,Meteorologica,2013-07-19 15:16:00,
2013-07-19 11:21:00,83.3,73.7,30.15,WNW,297,1.7,7.2,72,0.00,,,0.00,Meteorologica,2013-07-19 15:21:00,
2013-07-19 11:26:00,83.6,73.2,30.15,SSW,206,2.5,4.6,70,0.00,,,0.00,Meteorologica,2013-07-19 15:26:00,
2013-07-19 11:31:00,84.1,73.7,30.15,SSW,207,3.0,6.3,70,0.00,,,0.00,Meteorologica,2013-07-19 15:31:00,
2013-07-19 11:36:00,84.1,71.7,30.15,WNW,283,1.7,5.1,65,0.00,,,0.00,Meteorologica,2013-07-19 15:36:00,
2013-07-19 11:41:00,84.1,72.5,30.15,SW,218,0.0,4.2,67,0.00,,,0.00,Meteorologica,2013-07-19 15:41:00,
2013-07-19 11:46:00,84.1,72.5,30.15,West,259,2.3,2.5,67,0.00,,,0.00,Meteorologica,2013-07-19 15:46:00,
2013-07-19 11:51:00,84.1,72.4,30.15,WNW,282,0.8,4.3,67,0.00,,,0.00,Meteorologica,2013-07-19 15:51:00,
2013-07-19 11:56:00,84.1,72.8,30.15,West,272,0.9,4.3,68,0.00,,,0.00,Meteorologica,2013-07-19 15:56:00,
2013-07-19 12:01:00,84.4,71.8,30.15,ESE,113,1.0,3.0,65,0.00,,,0.00,Meteorologica,2013-07-19 16:01:00,
2013-07-19 12:06:00,84.6,71.8,30.14,SSW,211,0.0,4.2,64,0.00,,,0.00,Meteorologica,2013-07-19 16:06:00,
2013-07-19 12:11:00,85.1,71.5,30.14,NNE,28,1.2,3.1,63,0.00,,,0.00,Meteorologica,2013-07-19 16:11:00,
2013-07-19 12:16:00,85.6,71.7,30.14,NNW,334,2.4,4.0,62,0.00,,,0.00,Meteorologica,2013-07-19 16:16:00,
2013-07-19 12:21:00,86.5,70.5,30.14,WSW,251,0.0,7.8,58,0.00,,,0.00,Meteorologica,2013-07-19 16:21:00,
2013-07-19 12:26:00,87.1,70.9,30.13,NNW,331,0.1,5.3,58,0.00,,,0.00,Meteorologica,2013-07-19 16:26:00,
2013-07-19 12:32:00,87.8,71.3,30.13,ENE,62,0.0,3.0,57,0.00,,,0.00,Meteorologica,2013-07-19 16:32:00,
2013-07-19 12:37:00,88.1,71.4,30.13,North,11,0.4,3.8,57,0.00,,,0.00,Meteorologica,2013-07-19 16:37:00,
2013-07-19 12:42:00,87.9,70.3,30.13,South,184,2.7,2.7,55,0.00,,,0.00,Meteorologica,2013-07-19 16:42:00,
2013-07-19 12:47:00,87.8,70.5,30.13,NE,42,1.1,5.1,56,0.00,,,0.00,Meteorologica,2013-07-19 16:47:00,
2013-07-19 12:52:00,87.9,70.8,30.13,NE,42,0.0,3.4,56,0.00,,,0.00,Meteorologica,2013-07-19 16:52:00,
2013-07-19 12:57:00,88.2,68.8,30.12,South,184,3.6,4.0,52,0.00,,,0.00,Meteorologica,2013-07-19 16:57:00,
2013-07-19 13:02:00,88.7,69.7,30.13,NE,46,0.7,5.2,53,0.00,,,0.00,Meteorologica,2013-07-19 17:02:00,
2013-07-19 13:07:00,89.2,68.0,30.12,SSW,212,2.6,5.8,49,0.00,,,0.00,Meteorologica,2013-07-19 17:07:00,
2013-07-19 13:12:00,89.6,70.3,30.12,WNW,284,0.4,4.0,52,0.00,,,0.00,Meteorologica,2013-07-19 17:12:00,
2013-07-19 13:17:00,88.8,70.3,30.12,NNW,331,0.1,2.2,54,0.00,,,0.00,Meteorologica,2013-07-19 17:17:00,
2013-07-19 13:22:00,87.9,70.5,30.12,NW,320,0.8,1.6,56,0.00,,,0.00,Meteorologica,2013-07-19 17:22:00,
2013-07-19 13:27:00,87.5,70.1,30.12,NNW,337,0.1,3.7,55,0.00,,,0.00,Meteorologica,2013-07-19 17:27:00,
2013-07-19 13:32:00,87.4,70.8,30.11,SSW,193,0.7,4.2,57,0.00,,,0.00,Meteorologica,2013-07-19 17:32:00,
2013-07-19 13:37:00,87.8,70.9,30.11,South,169,0.3,2.9,57,0.00,,,0.00,Meteorologica,2013-07-19 17:37:00,
2013-07-19 13:42:00,88.2,71.0,30.11,SSW,208,1.9,3.7,56,0.00,,,0.00,Meteorologica,2013-07-19 17:42:00,
2013-07-19 13:47:00,88.8,70.2,30.11,WSW,247,2.1,3.7,54,0.00,,,0.00,Meteorologica,2013-07-19 17:47:00,
2013-07-19 13:52:00,89.5,70.7,30.11,West,259,0.0,4.8,53,0.00,,,0.00,Meteorologica,2013-07-19 17:52:00,
2013-07-19 13:58:00,89.3,70.0,30.10,ESE,115,1.1,4.1,52,0.00,,,0.00,Meteorologica,2013-07-19 17:58:00,
2013-07-19 14:03:00,89.3,71.2,30.10,WNW,302,0.0,3.3,54,0.00,,,0.00,Meteorologica,2013-07-19 18:03:00,
2013-07-19 14:08:00,88.9,69.9,30.10,NW,310,0.0,5.8,53,0.00,,,0.00,Meteorologica,2013-07-19 18:08:00,
2013-07-19 14:13:00,88.3,69.9,30.10,NNE,25,0.0,2.3,54,0.00,,,0.00,Meteorologica,2013-07-19 18:13:00,
2013-07-19 14:18:00,88.0,68.8,30.09,ENE,74,0.0,3.7,52,0.00,,,0.00,Meteorologica,2013-07-19 18:18:00,
2013-07-19 14:23:00,87.5,69.0,30.09,SSW,200,1.8,3.7,54,0.00,,,0.00,Meteorologica,2013-07-19 18:23:00,
2013-07-19 14:28:00,87.8,68.8,30.09,SSW,200,3.4,6.6,52,0.00,,,0.00,Meteorologica,2013-07-19 18:28:00,
2013-07-19 14:33:00,88.4,69.1,30.09,ESE,110,0.0,4.4,52,0.00,,,0.00,Meteorologica,2013-07-19 18:33:00,
2013-07-19 14:38:00,88.7,69.3,30.09,ENE,59,0.4,3.3,52,0.00,,,0.00,Meteorologica,2013-07-19 18:38:00,
2013-07-19 14:43:00,89.1,68.7,30.08,WNW,285,0.3,3.5,51,0.00,,,0.00,Meteorologica,2013-07-19 18:43:00,
2013-07-19 14:48:00,89.7,67.9,30.08,NNW,348,2.2,5.4,48,0.00,,,0.00,Meteorologica,2013-07-19 18:48:00,
2013-07-19 14:53:00,90.3,69.3,30.08,NW,313,0.3,4.1,49,0.00,,,0.00,Meteorologica,2013-07-19 18:53:00,
2013-07-19 14:58:00,90.8,68.3,30.08,SW,224,0.4,4.4,47,0.00,,,0.00,Meteorologica,2013-07-19 18:58:00,
2013-07-19 15:03:00,90.7,69.2,30.07,West,265,0.9,4.2,49,0.00,,,0.00,Meteorologica,2013-07-19 19:03:00,
2013-07-19 15:08:00,90.9,68.0,30.07,NW,309,4.5,6.5,46,0.00,,,0.00,Meteorologica,2013-07-19 19:08:00,
2013-07-19 15:13:00,90.4,67.8,30.07,NE,56,0.0,3.7,47,0.00,,,0.00,Meteorologica,2013-07-19 19:13:00,
2013-07-19 15:18:00,90.7,69.1,30.07,NW,310,0.1,3.2,49,0.00,,,0.00,Meteorologica,2013-07-19 19:18:00,
2013-07-19 15:23:00,90.7,68.5,30.07,ENE,63,1.0,4.8,48,0.00,,,0.00,Meteorologica,2013-07-19 19:23:00,
2013-07-19 15:28:00,90.8,68.7,30.06,SW,227,2.0,4.2,48,0.00,,,0.00,Meteorologica,2013-07-19 19:28:00,
2013-07-19 15:33:00,90.9,69.1,30.06,SE,132,0.0,2.9,49,0.00,,,0.00,Meteorologica,2013-07-19 19:33:00,
2013-07-19 15:38:00,91.0,69.4,30.06,SSW,193,0.4,1.2,48,0.00,,,0.00,Meteorologica,2013-07-19 19:38:00,
2013-07-19 15:44:00,90.7,70.4,30.06,SSW,200,0.2,2.2,50,0.00,,,0.00,Meteorologica,2013-07-19 19:44:00,
2013-07-19 15:49:00,90.4,71.2,30.05,ENE,59,0.0,2.0,53,0.00,,,0.00,Meteorologica,2013-07-19 19:49:00,
2013-07-19 15:54:00,89.7,72.5,30.05,SSE,165,0.0,0.8,56,0.00,,,0.00,Meteorologica,2013-07-19 19:54:00,
2013-07-19 15:59:00,89.0,72.3,30.05,SSE,165,0.0,0.0,57,0.00,,,0.00,Meteorologica,2013-07-19 19:59:00,
2013-07-19 16:04:00,88.7,72.6,30.05,SSE,165,0.0,0.0,58,0.00,,,0.00,Meteorologica,2013-07-19 20:04:00,
2013-07-19 16:09:00,88.6,71.6,30.04,ENE,60,0.0,1.6,56,0.00,,,0.00,Meteorologica,2013-07-19 20:09:00,
2013-07-19 16:14:00,88.4,71.8,30.04,East,84,0.7,1.8,57,0.00,,,0.00,Meteorologica,2013-07-19 20:14:00,
2013-07-19 16:19:00,88.3,71.5,30.04,SSW,210,1.7,3.0,57,0.00,,,0.00,Meteorologica,2013-07-19 20:19:00,
2013-07-19 16:24:00,88.5,69.7,30.04,WSW,239,2.0,2.2,53,0.00,,,0.00,Meteorologica,2013-07-19 20:24:00,
2013-07-19 16:29:00,89.0,70.7,30.03,NE,56,0.3,4.4,54,0.00,,,0.00,Meteorologica,2013-07-19 20:29:00,
2013-07-19 16:34:00,89.3,69.5,30.03,South,187,1.2,3.8,51,0.00,,,0.00,Meteorologica,2013-07-19 20:34:00,
2013-07-19 16:39:00,89.9,71.0,30.03,SW,224,1.9,4.5,53,0.00,,,0.00,Meteorologica,2013-07-19 20:39:00,
2013-07-19 16:44:00,90.3,70.2,30.03,SW,225,2.9,4.8,50,0.00,,,0.00,Meteorologica,2013-07-19 20:44:00,
2013-07-19 16:49:00,90.3,70.0,30.03,ESE,120,1.3,4.5,51,0.00,,,0.00,Meteorologica,2013-07-19 20:49:00,
2013-07-19 16:54:00,90.3,71.8,30.03,ESE,120,1.8,2.6,54,0.00,,,0.00,Meteorologica,2013-07-19 20:54:00,
2013-07-19 16:59:00,90.1,71.8,30.03,ESE,107,0.0,3.2,54,0.00,,,0.00,Meteorologica,2013-07-19 20:59:00,
2013-07-19 17:04:00,89.9,71.8,30.03,ENE,67,0.1,0.0,55,0.00,,,0.00,Meteorologica,2013-07-19 21:04:00,
2013-07-19 17:09:00,89.3,71.0,30.03,East,86,1.3,1.9,54,0.00,,,0.00,Meteorologica,2013-07-19 21:09:00,
2013-07-19 17:14:00,89.2,70.6,30.03,ESE,103,1.4,3.7,54,0.00,,,0.00,Meteorologica,2013-07-19 21:14:00,
2013-07-19 17:19:00,88.9,71.0,30.03,East,80,1.3,2.4,55,0.00,,,0.00,Meteorologica,2013-07-19 21:19:00,
2013-07-19 17:24:00,89.0,71.4,30.03,East,101,0.2,3.5,55,0.00,,,0.00,Meteorologica,2013-07-19 21:24:00,
2013-07-19 17:29:00,89.0,71.5,30.03,SE,134,2.0,2.3,55,0.00,,,0.00,Meteorologica,2013-07-19 21:29:00,
2013-07-19 17:34:00,88.9,71.8,30.02,SE,124,1.1,3.1,56,0.00,,,0.00,Meteorologica,2013-07-19 21:34:00,
2013-07-19 17:39:00,88.6,72.2,30.02,ESE,103,0.0,1.5,58,0.00,,,0.00,Meteorologica,2013-07-19 21:39:00,
2013-07-19 17:44:00,88.4,73.5,30.02,SE,124,0.2,0.0,60,0.00,,,0.00,Meteorologica,2013-07-19 21:44:00,
2013-07-19 17:50:00,88.2,73.1,30.02,SE,125,0.0,0.7,60,0.00,,,0.00,Meteorologica,2013-07-19 21:50:00,
2013-07-19 17:55:00,88.1,72.8,30.02,NE,42,0.0,2.9,59,0.00,,,0.00,Meteorologica,2013-07-19 21:55:00,
2013-07-19 18:00:00,87.9,72.2,30.02,South,172,0.1,2.2,59,0.00,,,0.00,Meteorologica,2013-07-19 22:00:00,
2013-07-19 18:05:00,88.0,73.4,30.02,SW,235,0.0,2.2,61,0.00,,,0.00,Meteorologica,2013-07-19 22:05:00,
2013-07-19 18:10:00,88.0,73.4,30.01,SW,235,0.0,0.0,61,0.00,,,0.00,Meteorologica,2013-07-19 22:10:00,
2013-07-19 18:15:00,87.9,72.9,30.01,SW,235,0.0,0.0,60,0.00,,,0.00,Meteorologica,2013-07-19 22:15:00,
2013-07-19 18:20:00,87.8,72.8,30.01,SW,235,0.0,0.0,60,0.00,,,0.00,Meteorologica,2013-07-19 22:20:00,
2013-07-19 18:25:00,87.6,72.7,30.01,SW,235,0.0,0.0,60,0.00,,,0.00,Meteorologica,2013-07-19 22:25:00,
2013-07-19 18:30:00,87.7,72.4,30.01,SW,235,0.0,0.0,60,0.00,,,0.00,Meteorologica,2013-07-19 22:30:00,
2013-07-19 18:35:00,87.5,72.8,30.01,SW,235,0.0,0.0,61,0.00,,,0.00,Meteorologica,2013-07-19 22:35:00,
2013-07-19 18:40:00,87.3,71.3,30.01,WSW,237,1.6,0.0,58,0.00,,,0.00,Meteorologica,2013-07-19 22:40:00,
2013-07-19 18:45:00,87.3,73.2,30.01,SW,215,0.0,2.4,62,0.00,,,0.00,Meteorologica,2013-07-19 22:45:00,
2013-07-19 18:50:00,87.3,73.4,30.01,SSE,162,0.0,0.0,62,0.00,,,0.00,Meteorologica,2013-07-19 22:50:00,
2013-07-19 18:55:00,87.1,72.8,30.00,South,170,0.0,0.9,61,0.00,,,0.00,Meteorologica,2013-07-19 22:55:00,
2013-07-19 19:00:00,87.0,72.8,30.01,SSW,193,0.0,1.5,62,0.00,,,0.00,Meteorologica,2013-07-19 23:00:00,
2013-07-19 19:05:00,87.0,72.9,30.01,SSW,193,0.0,0.0,62,0.00,,,0.00,Meteorologica,2013-07-19 23:05:00,
2013-07-19 19:10:00,86.6,72.7,30.00,SSW,193,0.0,0.0,62,0.00,,,0.00,Meteorologica,2013-07-19 23:10:00,
2013-07-19 19:16:00,86.8,73.3,30.00,SSW,193,0.0,0.0,63,0.00,,,0.00,Meteorologica,2013-07-19 23:16:00,
2013-07-19 19:21:00,86.6,73.3,30.00,SSW,193,0.0,0.0,63,0.00,,,0.00,Meteorologica,2013-07-19 23:21:00,
2013-07-19 19:26:00,86.5,73.2,30.00,SW,234,0.0,0.0,64,0.00,,,0.00,Meteorologica,2013-07-19 23:26:00,
2013-07-19 19:31:00,86.3,73.1,30.01,SW,234,0.0,1.5,64,0.00,,,0.00,Meteorologica,2013-07-19 23:31:00,
2013-07-19 19:36:00,86.3,73.2,30.01,SW,234,0.0,0.0,64,0.00,,,0.00,Meteorologica,2013-07-19 23:36:00,
2013-07-19 19:41:00,86.1,73.1,30.00,SW,234,0.0,0.0,64,0.00,,,0.00,Meteorologica,2013-07-19 23:41:00,
2013-07-19 19:46:00,86.3,73.6,30.01,SW,234,0.0,0.0,65,0.00,,,0.00,Meteorologica,2013-07-19 23:46:00,
2013-07-19 19:51:00,86.2,74.0,30.01,SW,234,0.0,0.0,66,0.00,,,0.00,Meteorologica,2013-07-19 23:51:00,
2013-07-19 19:56:00,86.2,74.6,30.01,SW,234,0.0,0.0,67,0.00,,,0.00,Meteorologica,2013-07-19 23:56:00,
2013-07-19 20:01:00,86.1,74.6,30.01,SW,234,0.0,0.0,68,0.00,,,0.00,Meteorologica,2013-07-20 00:01:00,
2013-07-19 20:06:00,86.0,74.7,30.01,SW,234,0.0,0.0,68,0.00,,,0.00,Meteorologica,2013-07-20 00:06:00,
2013-07-19 20:11:00,86.0,74.4,30.01,SW,234,0.0,0.0,67,0.00,,,0.00,Meteorologica,2013-07-20 00:11:00,
2013-07-19 20:16:00,85.8,74.7,30.01,SW,234,0.0,0.0,68,0.00,,,0.00,Meteorologica,2013-07-20 00:16:00,
2013-07-19 20:21:00,85.8,75.2,30.02,SW,234,0.0,0.0,70,0.00,,,0.00,Meteorologica,2013-07-20 00:21:00,
2013-07-19 20:26:00,85.6,74.4,30.02,SW,234,0.0,0.0,68,0.00,,,0.00,Meteorologica,2013-07-20 00:26:00,
2013-07-19 20:31:00,85.5,74.0,30.02,SW,234,0.0,0.0,68,0.00,,,0.00,Meteorologica,2013-07-20 00:31:00,
2013-07-19 20:36:00,85.2,73.8,30.02,SW,234,0.0,0.0,68,0.00,,,0.00,Meteorologica,2013-07-20 00:36:00,
2013-07-19 20:41:00,85.3,74.1,30.02,SE,136,0.2,0.0,68,0.00,,,0.00,Meteorologica,2013-07-20 00:41:00,
2013-07-19 20:47:00,84.9,74.8,30.02,SE,136,0.0,2.1,71,0.00,,,0.00,Meteorologica,2013-07-20 00:47:00,
2013-07-19 20:52:00,84.7,75.3,30.03,SE,136,0.0,0.0,73,0.00,,,0.00,Meteorologica,2013-07-20 00:52:00,
2013-07-19 20:57:00,84.3,75.2,30.02,SE,136,0.0,0.0,73,0.00,,,0.00,Meteorologica,2013-07-20 00:57:00,
2013-07-19 21:02:00,84.0,75.3,30.02,SE,136,0.0,0.0,75,0.00,,,0.00,Meteorologica,2013-07-20 01:02:00,
2013-07-19 21:07:00,83.6,75.2,30.03,SE,136,0.0,0.0,75,0.00,,,0.00,Meteorologica,2013-07-20 01:07:00,
2013-07-19 21:12:00,83.2,75.0,30.03,SE,136,0.0,0.0,76,0.00,,,0.00,Meteorologica,2013-07-20 01:12:00,
2013-07-19 21:17:00,83.0,74.8,30.03,SE,136,0.0,0.0,76,0.00,,,0.00,Meteorologica,2013-07-20 01:17:00,
2013-07-19 21:22:00,82.9,74.0,30.03,South,181,2.6,0.0,74,0.00,,,0.00,Meteorologica,2013-07-20 01:22:00,
2013-07-19 21:27:00,82.7,73.3,30.03,WSW,247,2.3,5.1,72,0.00,,,0.00,Meteorologica,2013-07-20 01:27:00,
2013-07-19 21:32:00,82.5,74.5,30.03,SW,218,3.1,3.8,76,0.07,,,0.07,Meteorologica,2013-07-20 01:32:00,
2013-07-19 21:37:00,81.4,75.5,30.03,NE,39,1.8,8.4,82,0.15,,,0.15,Meteorologica,2013-07-20 01:37:00,
2013-07-19 21:42:00,80.0,78.2,30.03,ENE,69,2.0,9.8,94,0.17,,,0.17,Meteorologica,2013-07-20 01:42:00,
2013-07-19 21:47:00,78.3,78.2,30.05,WNW,303,2.6,5.5,100,0.18,,,0.18,Meteorologica,2013-07-20 01:47:00,
2013-07-19 21:52:00,76.5,76.5,30.05,ENE,58,3.0,7.7,100,0.18,,,0.18,Meteorologica,2013-07-20 01:52:00,
2013-07-19 21:57:00,75.6,75.6,30.05,ENE,74,2.6,9.5,100,0.18,,,0.18,Meteorologica,2013-07-20 01:57:00,
2013-07-19 22:02:00,74.8,74.8,30.05,ENE,60,0.0,4.0,100,0.18,,,0.18,Meteorologica,2013-07-20 02:02:00,
2013-07-19 22:07:00,74.2,74.2,30.05,NE,39,2.3,4.7,100,0.18,,,0.18,Meteorologica,2013-07-20 02:07:00,
2013-07-19 22:12:00,73.7,73.7,30.05,NNE,21,0.0,3.7,100,0.18,,,0.18,Meteorologica,2013-07-20 02:12:00,
2013-07-19 22:18:00,73.7,73.7,30.05,NNE,21,0.0,2.7,100,0.18,,,0.18,Meteorologica,2013-07-20 02:18:00,
2013-07-19 22:23:00,73.7,73.7,30.05,NNE,21,0.0,0.0,100,0.18,,,0.18,Meteorologica,2013-07-20 02:23:00,
2013-07-19 22:28:00,73.7,73.7,30.05,NNE,21,0.0,0.0,100,0.18,,,0.18,Meteorologica,2013-07-20 02:28:00,
2013-07-19 22:33:00,74.0,74.0,30.05,NNE,21,0.0,0.0,100,0.08,,,0.18,Meteorologica,2013-07-20 02:33:00,
2013-07-19 22:38:00,74.1,74.1,30.06,NNE,21,0.0,0.0,100,0.01,,,0.18,Meteorologica,2013-07-20 02:38:00,
2013-07-19 22:43:00,74.1,74.1,30.05,NNE,21,0.0,0.0,100,0.00,,,0.18,Meteorologica,2013-07-20 02:43:00,
2013-07-19 22:49:00,74.1,74.1,30.05,NNE,21,0.0,0.0,100,0.00,,,0.18,Meteorologica,2013-07-20 02:49:00,
2013-07-19 22:54:00,74.3,74.3,30.06,NNE,21,0.0,0.0,100,0.00,,,0.18,Meteorologica,2013-07-20 02:54:00,
2013-07-19 22:59:00,74.3,74.3,30.06,NNE,21,0.0,0.0,100,0.00,,,0.18,Meteorologica,2013-07-20 02:59:00,
2013-07-19 23:04:00,74.3,74.3,30.06,NNE,21,0.0,0.0,100,0.00,,,0.18,Meteorologica,2013-07-20 03:04:00,
2013-07-19 23:09:00,74.3,74.3,30.06,WSW,242,1.1,5.2,100,0.00,,,0.18,Meteorologica,2013-07-20 03:09:00,
2013-07-19 23:14:00,74.2,74.2,30.07,SW,215,0.0,3.8,100,0.00,,,0.18,Meteorologica,2013-07-20 03:14:00,
2013-07-19 23:19:00,74.2,74.2,30.06,SW,215,0.0,0.0,100,0.00,,,0.18,Meteorologica,2013-07-20 03:19:00,
2013-07-19 23:21:00,74.4,74.4,30.06,SW,215,0.0,0.0,100,0.00,,,0.18,Meteorologica,2013-07-20 03:21:00,
2013-07-19 23:26:00,74.3,74.3,30.06,SW,215,0.0,0.0,100,0.00,,,0.18,Meteorologica,2013-07-20 03:26:00,
2013-07-19 23:31:00,74.3,74.3,30.06,SW,215,0.0,0.0,100,0.00,,,0.18,Meteorologica,2013-07-20 03:31:00,
2013-07-19 23:36:00,74.1,74.1,30.06,SW,215,0.0,0.0,100,0.00,,,0.18,Meteorologica,2013-07-20 03:36:00,
2013-07-19 23:42:00,74.1,74.1,30.06,SW,215,0.0,0.0,100,0.00,,,0.18,Meteorologica,2013-07-20 03:42:00,
2013-07-19 23:47:00,74.0,74.0,30.06,SW,215,0.0,0.0,100,0.00,,,0.18,Meteorologica,2013-07-20 03:47:00,
2013-07-19 23:52:00,74.0,74.0,30.06,SW,215,0.0,0.0,100,0.00,,,0.18,Meteorologica,2013-07-20 03:52:00,
2013-07-19 23:57:00,74.0,74.0,30.06,SSW,202,2.2,2.2,100,0.00,,,0.18,Meteorologica,2013-07-20 03:57:00,